sensor_id;sensor_type;location;lat;lon;timestamp;pressure;altitude;pressure_sealevel;temperature;humidity
72061;BME280;59925;52.136;5.420;2022-09-30T00:00:55;101007.44;;;5.82;84.57
72061;BME280;59925;52.136;5.420;2022-09-30T00:03:22;101006.06;;;5.80;84.89
72061;BME280;59925;52.136;5.420;2022-09-30T00:05:59;100999.72;;;5.81;84.96
72061;BME280;59925;52.136;5.420;2022-09-30T00:08:33;101010.34;;;5.81;84.74
72061;BME280;59925;52.136;5.420;2022-09-30T00:11:17;101013.69;;;5.76;85.07
72061;BME280;59925;52.136;5.420;2022-09-30T00:13:47;101008.25;;;5.71;84.79
72061;BME280;59925;52.136;5.420;2022-09-30T00:16:15;101016.38;;;5.64;85.24
72061;BME280;59925;52.136;5.420;2022-09-30T00:18:42;101016.03;;;5.61;85.12
72061;BME280;59925;52.136;5.420;2022-09-30T00:21:10;101013.81;;;5.58;84.82
72061;BME280;59925;52.136;5.420;2022-09-30T00:23:37;101011.63;;;5.55;85.25
72061;BME280;59925;52.136;5.420;2022-09-30T00:26:07;101009.41;;;5.51;85.17
72061;BME280;59925;52.136;5.420;2022-09-30T00:28:35;101014.97;;;5.50;85.21
72061;BME280;59925;52.136;5.420;2022-09-30T00:31:05;101007.25;;;5.48;85.31
72061;BME280;59925;52.136;5.420;2022-09-30T00:33:33;101011.50;;;5.49;85.33
72061;BME280;59925;52.136;5.420;2022-09-30T00:36:01;101014.97;;;5.50;85.04
72061;BME280;59925;52.136;5.420;2022-09-30T00:38:27;101010.09;;;5.47;85.19
72061;BME280;59925;52.136;5.420;2022-09-30T00:40:54;101007.91;;;5.44;84.83
72061;BME280;59925;52.136;5.420;2022-09-30T00:43:42;101010.56;;;5.44;85.16
72061;BME280;59925;52.136;5.420;2022-09-30T00:46:18;101009.75;;;5.43;85.46
72061;BME280;59925;52.136;5.420;2022-09-30T00:48:48;101016.56;;;5.39;85.79
72061;BME280;59925;52.136;5.420;2022-09-30T00:51:27;101019.94;;;5.34;85.40
72061;BME280;59925;52.136;5.420;2022-09-30T00:54:02;101025.81;;;5.25;85.33
72061;BME280;59925;52.136;5.420;2022-09-30T00:56:33;101026.72;;;5.18;85.63
72061;BME280;59925;52.136;5.420;2022-09-30T00:59:09;101022.91;;;5.14;85.62
72061;BME280;59925;52.136;5.420;2022-09-30T01:01:40;101024.97;;;5.12;85.23
72061;BME280;59925;52.136;5.420;2022-09-30T01:04:18;101022.78;;;5.09;85.53
72061;BME280;59925;52.136;5.420;2022-09-30T01:06:47;101021.38;;;5.06;85.64
72061;BME280;59925;52.136;5.420;2022-09-30T01:09:13;101018.13;;;5.04;85.75
72061;BME280;59925;52.136;5.420;2022-09-30T01:11:40;101016.06;;;5.06;85.92
72061;BME280;59925;52.136;5.420;2022-09-30T01:14:12;101012.63;;;5.06;85.84
72061;BME280;59925;52.136;5.420;2022-09-30T01:22:40;101017.09;;;5.05;86.09
72061;BME280;59925;52.136;5.420;2022-09-30T01:25:25;101015.84;;;5.08;85.77
72061;BME280;59925;52.136;5.420;2022-09-30T01:28:28;101022.41;;;5.05;85.95
72061;BME280;59925;52.136;5.420;2022-09-30T01:34:53;101009.38;;;5.04;85.98
72061;BME280;59925;52.136;5.420;2022-09-30T01:42:14;101027.38;;;5.02;86.55
72061;BME280;59925;52.136;5.420;2022-09-30T01:50:03;101029.44;;;4.88;86.25
72061;BME280;59925;52.136;5.420;2022-09-30T01:55:18;101032.63;;;4.78;86.51
72061;BME280;59925;52.136;5.420;2022-09-30T02:00:30;101030.78;;;4.79;86.68
72061;BME280;59925;52.136;5.420;2022-09-30T02:03:03;101034.25;;;4.79;86.79
72061;BME280;59925;52.136;5.420;2022-09-30T02:05:46;101036.47;;;4.82;86.68
72061;BME280;59925;52.136;5.420;2022-09-30T02:08:39;101032.38;;;4.80;86.78
72061;BME280;59925;52.136;5.420;2022-09-30T02:11:29;101037.13;;;4.78;86.80
72061;BME280;59925;52.136;5.420;2022-09-30T02:14:11;101036.91;;;4.79;86.36
72061;BME280;59925;52.136;5.420;2022-09-30T02:16:48;101027.91;;;4.80;86.82
72061;BME280;59925;52.136;5.420;2022-09-30T02:19:39;101030.09;;;4.83;87.00
72061;BME280;59925;52.136;5.420;2022-09-30T02:24:43;101022.59;;;4.80;86.97
72061;BME280;59925;52.136;5.420;2022-09-30T02:27:20;101032.38;;;4.80;87.26
72061;BME280;59925;52.136;5.420;2022-09-30T02:29:51;101032.03;;;4.76;86.75
72061;BME280;59925;52.136;5.420;2022-09-30T02:32:23;101032.28;;;4.74;87.25
72061;BME280;59925;52.136;5.420;2022-09-30T02:34:57;101029.63;;;4.74;86.69
72061;BME280;59925;52.136;5.420;2022-09-30T02:37:32;101039.66;;;4.72;86.51
72061;BME280;59925;52.136;5.420;2022-09-30T02:40:05;101038.13;;;4.65;86.74
72061;BME280;59925;52.136;5.420;2022-09-30T02:42:34;101031.97;;;4.64;86.47
72061;BME280;59925;52.136;5.420;2022-09-30T02:45:04;101022.41;;;4.63;86.77
72061;BME280;59925;52.136;5.420;2022-09-30T02:47:55;101021.59;;;4.63;86.49
72061;BME280;59925;52.136;5.420;2022-09-30T02:53:07;101027.81;;;4.56;86.59
72061;BME280;59925;52.136;5.420;2022-09-30T02:56:18;101031.34;;;4.50;86.49
72061;BME280;59925;52.136;5.420;2022-09-30T02:58:50;101035.28;;;4.48;86.32
72061;BME280;59925;52.136;5.420;2022-09-30T03:01:18;101033.06;;;4.44;86.28
72061;BME280;59925;52.136;5.420;2022-09-30T03:03:52;101034.09;;;4.43;86.27
72061;BME280;59925;52.136;5.420;2022-09-30T03:06:20;101035.34;;;4.41;86.75
72061;BME280;59925;52.136;5.420;2022-09-30T03:08:46;101027.16;;;4.42;86.76
72061;BME280;59925;52.136;5.420;2022-09-30T03:11:27;101034.34;;;4.42;86.26
72061;BME280;59925;52.136;5.420;2022-09-30T03:37:01;101059.09;;;4.36;86.79
72061;BME280;59925;52.136;5.420;2022-09-30T03:39:52;101071.56;;;4.35;86.90
72061;BME280;59925;52.136;5.420;2022-09-30T03:42:43;101076.28;;;4.33;87.36
72061;BME280;59925;52.136;5.420;2022-09-30T03:45:33;101074.06;;;4.30;86.75
72061;BME280;59925;52.136;5.420;2022-09-30T03:48:04;101075.69;;;4.31;87.56
72061;BME280;59925;52.136;5.420;2022-09-30T03:50:34;101089.19;;;4.29;87.07
72061;BME280;59925;52.136;5.420;2022-09-30T03:53:02;101083.97;;;4.23;87.02
72061;BME280;59925;52.136;5.420;2022-09-30T03:55:29;101079.88;;;4.20;86.90
72061;BME280;59925;52.136;5.420;2022-09-30T03:57:58;101093.59;;;4.17;86.83
72061;BME280;59925;52.136;5.420;2022-09-30T04:00:24;101093.44;;;4.12;87.12
72061;BME280;59925;52.136;5.420;2022-09-30T04:02:51;101094.72;;;4.09;86.77
72061;BME280;59925;52.136;5.420;2022-09-30T04:05:23;101094.91;;;4.08;87.06
72061;BME280;59925;52.136;5.420;2022-09-30T04:07:49;101096.75;;;4.07;86.75
72061;BME280;59925;52.136;5.420;2022-09-30T04:10:16;101090.03;;;4.05;86.63
72061;BME280;59925;52.136;5.420;2022-09-30T04:12:42;101095.13;;;4.06;86.90
72061;BME280;59925;52.136;5.420;2022-09-30T04:15:09;101101.84;;;4.09;86.62
72061;BME280;59925;52.136;5.420;2022-09-30T04:17:36;101096.09;;;4.12;86.78
72061;BME280;59925;52.136;5.420;2022-09-30T04:20:02;101098.97;;;4.10;86.77
72061;BME280;59925;52.136;5.420;2022-09-30T04:22:29;101095.13;;;4.06;86.79
72061;BME280;59925;52.136;5.420;2022-09-30T04:24:55;101100.44;;;4.06;87.07
72061;BME280;59925;52.136;5.420;2022-09-30T04:27:21;101101.84;;;4.09;86.82
72061;BME280;59925;52.136;5.420;2022-09-30T04:29:48;101111.50;;;4.03;86.92
72061;BME280;59925;52.136;5.420;2022-09-30T04:32:15;101105.44;;;3.96;87.24
72061;BME280;59925;52.136;5.420;2022-09-30T04:34:41;101107.69;;;3.92;87.10
72061;BME280;59925;52.136;5.420;2022-09-30T04:37:07;101114.91;;;3.85;87.12
72061;BME280;59925;52.136;5.420;2022-09-30T04:39:36;101116.97;;;3.83;87.14
72061;BME280;59925;52.136;5.420;2022-09-30T04:42:02;101118.81;;;3.82;87.23
72061;BME280;59925;52.136;5.420;2022-09-30T04:44:29;101117.63;;;3.78;86.87
72061;BME280;59925;52.136;5.420;2022-09-30T04:46:55;101124.56;;;3.79;87.18
72061;BME280;59925;52.136;5.420;2022-09-30T04:49:22;101126.19;;;3.80;87.23
72061;BME280;59925;52.136;5.420;2022-09-30T04:51:49;101121.69;;;3.81;87.19
72061;BME280;59925;52.136;5.420;2022-09-30T04:54:16;101128.84;;;3.80;87.14
72061;BME280;59925;52.136;5.420;2022-09-30T04:56:42;101113.94;;;3.79;87.21
72061;BME280;59925;52.136;5.420;2022-09-30T04:59:09;101118.66;;;3.77;86.71
72061;BME280;59925;52.136;5.420;2022-09-30T05:01:36;101119.09;;;3.74;87.20
72061;BME280;59925;52.136;5.420;2022-09-30T05:04:04;101130.72;;;3.73;87.08
72061;BME280;59925;52.136;5.420;2022-09-30T05:06:30;101129.53;;;3.69;86.64
72061;BME280;59925;52.136;5.420;2022-09-30T05:08:57;101133.41;;;3.66;87.53
72061;BME280;59925;52.136;5.420;2022-09-30T05:11:23;101128.94;;;3.67;87.17
72061;BME280;59925;52.136;5.420;2022-09-30T05:13:50;101133.59;;;3.72;87.37
72061;BME280;59925;52.136;5.420;2022-09-30T05:16:17;101140.16;;;3.69;87.14
72061;BME280;59925;52.136;5.420;2022-09-30T05:18:44;101133.41;;;3.66;87.52
72061;BME280;59925;52.136;5.420;2022-09-30T05:21:16;101147.69;;;3.65;87.48
72061;BME280;59925;52.136;5.420;2022-09-30T05:23:45;101142.41;;;3.65;87.08
72061;BME280;59925;52.136;5.420;2022-09-30T05:26:12;101144.63;;;3.68;87.49
72061;BME280;59925;52.136;5.420;2022-09-30T05:28:39;101143.81;;;3.68;87.29
72061;BME280;59925;52.136;5.420;2022-09-30T05:31:06;101142.63;;;3.64;87.41
72061;BME280;59925;52.136;5.420;2022-09-30T05:33:33;101137.31;;;3.64;87.53
72061;BME280;59925;52.136;5.420;2022-09-30T05:36:04;101154.25;;;3.63;87.73
72061;BME280;59925;52.136;5.420;2022-09-30T05:38:30;101159.34;;;3.64;87.37
72061;BME280;59925;52.136;5.420;2022-09-30T05:40:57;101156.31;;;3.61;87.29
72061;BME280;59925;52.136;5.420;2022-09-30T05:43:24;101157.31;;;3.60;87.30
72061;BME280;59925;52.136;5.420;2022-09-30T05:45:56;101152.03;;;3.60;87.10
72061;BME280;59925;52.136;5.420;2022-09-30T05:48:23;101153.47;;;3.62;87.50
72061;BME280;59925;52.136;5.420;2022-09-30T05:50:55;101153.47;;;3.62;86.86
72061;BME280;59925;52.136;5.420;2022-09-30T05:53:23;101158.16;;;3.60;87.66
72061;BME280;59925;52.136;5.420;2022-09-30T05:55:50;101161.41;;;3.62;87.39
72061;BME280;59925;52.136;5.420;2022-09-30T05:58:18;101161.19;;;3.64;87.89
72061;BME280;59925;52.136;5.420;2022-09-30T06:00:47;101158.53;;;3.64;87.51
72061;BME280;59925;52.136;5.420;2022-09-30T06:03:14;101168.72;;;3.67;87.98
72061;BME280;59925;52.136;5.420;2022-09-30T06:05:41;101172.78;;;3.70;88.18
72061;BME280;59925;52.136;5.420;2022-09-30T06:08:10;101176.81;;;3.72;87.80
72061;BME280;59925;52.136;5.420;2022-09-30T06:10:40;101173.19;;;3.66;87.98
72061;BME280;59925;52.136;5.420;2022-09-30T06:13:08;101173.00;;;3.68;87.34
72061;BME280;59925;52.136;5.420;2022-09-30T06:15:34;101168.06;;;3.72;87.87
72061;BME280;59925;52.136;5.420;2022-09-30T06:18:04;101178.25;;;3.75;88.29
72061;BME280;59925;52.136;5.420;2022-09-30T06:20:31;101179.44;;;3.79;88.23
72061;BME280;59925;52.136;5.420;2022-09-30T06:22:59;101183.19;;;3.96;88.71
72061;BME280;59925;52.136;5.420;2022-09-30T06:25:27;101179.06;;;4.01;88.19
72061;BME280;59925;52.136;5.420;2022-09-30T06:27:54;101179.69;;;4.03;88.13
72061;BME280;59925;52.136;5.420;2022-09-30T06:30:20;101179.69;;;4.03;88.05
72061;BME280;59925;52.136;5.420;2022-09-30T06:32:47;101178.00;;;4.08;88.16
72061;BME280;59925;52.136;5.420;2022-09-30T06:35:13;101177.34;;;4.13;88.38
72061;BME280;59925;52.136;5.420;2022-09-30T06:37:40;101183.81;;;4.17;88.48
72061;BME280;59925;52.136;5.420;2022-09-30T06:40:07;101185.84;;;4.22;88.35
72061;BME280;59925;52.136;5.420;2022-09-30T06:42:33;101185.97;;;4.27;88.22
72061;BME280;59925;52.136;5.420;2022-09-30T06:45:00;101188.78;;;4.32;88.96
72061;BME280;59925;52.136;5.420;2022-09-30T06:47:26;101183.63;;;4.37;88.72
72061;BME280;59925;52.136;5.420;2022-09-30T06:49:53;101182.53;;;4.45;89.29
72061;BME280;59925;52.136;5.420;2022-09-30T06:52:25;101189.41;;;4.53;89.51
72061;BME280;59925;52.136;5.420;2022-09-30T06:54:51;101197.31;;;4.59;89.68
72061;BME280;59925;52.136;5.420;2022-09-30T06:57:23;101190.69;;;4.69;90.07
72061;BME280;59925;52.136;5.420;2022-09-30T06:59:49;101188.75;;;4.76;90.22
72061;BME280;59925;52.136;5.420;2022-09-30T07:02:16;101189.88;;;4.87;90.02
72061;BME280;59925;52.136;5.420;2022-09-30T07:04:42;101203.19;;;4.99;89.81
72061;BME280;59925;52.136;5.420;2022-09-30T07:07:09;101188.97;;;5.12;90.38
72061;BME280;59925;52.136;5.420;2022-09-30T07:09:35;101193.28;;;5.25;90.42
72061;BME280;59925;52.136;5.420;2022-09-30T07:12:02;101187.19;;;5.36;90.28
72061;BME280;59925;52.136;5.420;2022-09-30T07:14:29;101189.22;;;5.52;90.63
72061;BME280;59925;52.136;5.420;2022-09-30T07:16:56;101181.97;;;5.72;90.56
72061;BME280;59925;52.136;5.420;2022-09-30T07:19:23;101183.94;;;6.31;91.21
72061;BME280;59925;52.136;5.420;2022-09-30T07:21:50;101192.06;;;7.75;90.97
72061;BME280;59925;52.136;5.420;2022-09-30T07:24:17;101188.50;;;8.04;88.60
72061;BME280;59925;52.136;5.420;2022-09-30T07:26:44;101184.75;;;7.54;88.17
72061;BME280;59925;52.136;5.420;2022-09-30T07:29:11;101182.28;;;7.35;88.48
72061;BME280;59925;52.136;5.420;2022-09-30T07:31:39;101174.19;;;7.30;88.91
72061;BME280;59925;52.136;5.420;2022-09-30T07:34:07;101178.25;;;7.32;89.02
72061;BME280;59925;52.136;5.420;2022-09-30T07:36:36;101183.19;;;7.41;89.24
72061;BME280;59925;52.136;5.420;2022-09-30T07:39:06;101179.59;;;7.64;89.32
72061;BME280;59925;52.136;5.420;2022-09-30T07:41:35;101179.84;;;7.96;88.97
72061;BME280;59925;52.136;5.420;2022-09-30T07:44:03;101175.63;;;8.01;88.74
72061;BME280;59925;52.136;5.420;2022-09-30T07:46:33;101177.59;;;8.05;88.69
72061;BME280;59925;52.136;5.420;2022-09-30T07:49:01;101177.41;;;8.12;88.69
72061;BME280;59925;52.136;5.420;2022-09-30T07:51:34;101190.66;;;8.24;88.91
72061;BME280;59925;52.136;5.420;2022-09-30T07:54:03;101179.31;;;8.34;88.87
72061;BME280;59925;52.136;5.420;2022-09-30T07:56:31;101173.88;;;8.46;88.85
72061;BME280;59925;52.136;5.420;2022-09-30T07:59:18;101168.53;;;8.63;88.98
72061;BME280;59925;52.136;5.420;2022-09-30T08:01:46;101167.41;;;8.81;88.78
72061;BME280;59925;52.136;5.420;2022-09-30T08:04:13;101170.81;;;8.98;88.36
72061;BME280;59925;52.136;5.420;2022-09-30T08:06:47;101168.09;;;9.20;88.51
72061;BME280;59925;52.136;5.420;2022-09-30T08:09:15;101167.00;;;9.44;88.06
72061;BME280;59925;52.136;5.420;2022-09-30T08:11:42;101167.97;;;9.65;87.43
72061;BME280;59925;52.136;5.420;2022-09-30T08:14:20;101160.66;;;9.88;87.36
72061;BME280;59925;52.136;5.420;2022-09-30T08:16:47;101157.88;;;10.10;86.57
72061;BME280;59925;52.136;5.420;2022-09-30T08:19:19;101160.69;;;10.31;86.01
72061;BME280;59925;52.136;5.420;2022-09-30T08:21:47;101160.84;;;10.56;85.53
72061;BME280;59925;52.136;5.420;2022-09-30T08:24:14;101159.84;;;10.78;85.31
72061;BME280;59925;52.136;5.420;2022-09-30T08:26:41;101164.75;;;11.02;84.70
72061;BME280;59925;52.136;5.420;2022-09-30T08:29:08;101173.41;;;11.25;84.15
72061;BME280;59925;52.136;5.420;2022-09-30T08:31:42;101180.66;;;11.40;83.58
72061;BME280;59925;52.136;5.420;2022-09-30T08:34:08;101176.38;;;11.59;83.04
72061;BME280;59925;52.136;5.420;2022-09-30T08:36:35;101167.53;;;11.85;82.64
72061;BME280;59925;52.136;5.420;2022-09-30T08:39:01;101172.13;;;12.10;82.23
72061;BME280;59925;52.136;5.420;2022-09-30T08:51:50;101167.81;;;12.90;77.61
72061;BME280;59925;52.136;5.420;2022-09-30T08:54:22;101170.94;;;13.08;77.86
72061;BME280;59925;52.136;5.420;2022-09-30T08:56:50;101164.38;;;13.24;76.49
72061;BME280;59925;52.136;5.420;2022-09-30T08:59:39;101167.50;;;13.37;76.22
72061;BME280;59925;52.136;5.420;2022-09-30T09:02:32;101174.13;;;13.60;75.98
72061;BME280;59925;52.136;5.420;2022-09-30T09:05:01;101178.59;;;13.75;74.61
72061;BME280;59925;52.136;5.420;2022-09-30T09:15:48;101194.88;;;14.72;71.74
72061;BME280;59925;52.136;5.420;2022-09-30T09:18:37;101186.00;;;14.66;70.93
72061;BME280;59925;52.136;5.420;2022-09-30T09:23:56;101178.44;;;14.93;70.10
72061;BME280;59925;52.136;5.420;2022-09-30T09:26:28;101172.47;;;15.15;69.61
72061;BME280;59925;52.136;5.420;2022-09-30T09:31:33;101175.31;;;15.76;68.83
72061;BME280;59925;52.136;5.420;2022-09-30T09:34:08;101172.75;;;15.85;68.77
72061;BME280;59925;52.136;5.420;2022-09-30T09:36:45;101175.69;;;16.02;68.58
72061;BME280;59925;52.136;5.420;2022-09-30T09:42:51;101171.47;;;15.96;65.43
72061;BME280;59925;52.136;5.420;2022-09-30T09:47:52;101166.19;;;16.05;66.42
72061;BME280;59925;52.136;5.420;2022-09-30T09:50:24;101166.50;;;16.31;65.84
72061;BME280;59925;52.136;5.420;2022-09-30T09:55:34;101174.53;;;16.36;66.17
72061;BME280;59925;52.136;5.420;2022-09-30T09:58:12;101174.72;;;16.54;63.81
72061;BME280;59925;52.136;5.420;2022-09-30T10:00:44;101170.91;;;16.55;63.53
72061;BME280;59925;52.136;5.420;2022-09-30T10:03:17;101170.91;;;16.55;63.65
72061;BME280;59925;52.136;5.420;2022-09-30T10:05:58;101173.28;;;16.84;63.79
72061;BME280;59925;52.136;5.420;2022-09-30T10:08:27;101176.09;;;16.79;63.33
72061;BME280;59925;52.136;5.420;2022-09-30T10:10:57;101170.38;;;16.81;63.14
72061;BME280;59925;52.136;5.420;2022-09-30T10:13:26;101175.03;;;17.17;63.91
72061;BME280;59925;52.136;5.420;2022-09-30T10:15:56;101167.50;;;17.51;63.45
72061;BME280;59925;52.136;5.420;2022-09-30T10:18:30;101173.56;;;17.79;61.72
72061;BME280;59925;52.136;5.420;2022-09-30T10:21:04;101162.50;;;17.44;60.42
72061;BME280;59925;52.136;5.420;2022-09-30T10:23:35;101164.22;;;17.40;60.77
72061;BME280;59925;52.136;5.420;2022-09-30T10:26:17;101162.91;;;17.60;60.44
72061;BME280;59925;52.136;5.420;2022-09-30T10:31:37;101168.50;;;17.86;59.69
72061;BME280;59925;52.136;5.420;2022-09-30T10:34:09;101179.09;;;17.74;58.43
72061;BME280;59925;52.136;5.420;2022-09-30T10:36:38;101163.69;;;17.83;60.00
72061;BME280;59925;52.136;5.420;2022-09-30T10:39:20;101158.13;;;18.20;59.91
72061;BME280;59925;52.136;5.420;2022-09-30T10:41:50;101166.31;;;18.29;59.49
72061;BME280;59925;52.136;5.420;2022-09-30T10:44:20;101168.75;;;18.48;58.40
72061;BME280;59925;52.136;5.420;2022-09-30T10:46:51;101158.72;;;17.76;56.60
72061;BME280;59925;52.136;5.420;2022-09-30T10:49:53;101162.31;;;17.63;59.04
72061;BME280;59925;52.136;5.420;2022-09-30T10:52:26;101156.34;;;17.84;57.66
72061;BME280;59925;52.136;5.420;2022-09-30T10:54:56;101146.75;;;17.77;58.06
72061;BME280;59925;52.136;5.420;2022-09-30T10:57:25;101162.72;;;18.11;57.18
72061;BME280;59925;52.136;5.420;2022-09-30T11:00:00;101150.66;;;17.94;57.33
72061;BME280;59925;52.136;5.420;2022-09-30T11:02:39;101155.16;;;18.30;56.26
72061;BME280;59925;52.136;5.420;2022-09-30T11:05:22;101151.63;;;18.30;55.71
72061;BME280;59925;52.136;5.420;2022-09-30T11:08:01;101153.41;;;18.34;54.94
72061;BME280;59925;52.136;5.420;2022-09-30T11:13:21;101151.88;;;18.11;55.18
72061;BME280;59925;52.136;5.420;2022-09-30T11:18:37;101145.94;;;18.49;55.00
72061;BME280;59925;52.136;5.420;2022-09-30T11:21:17;101145.84;;;18.89;54.94
72061;BME280;59925;52.136;5.420;2022-09-30T11:31:31;101132.28;;;18.72;53.81
72061;BME280;59925;52.136;5.420;2022-09-30T11:36:42;101129.50;;;18.45;55.03
72061;BME280;59925;52.136;5.420;2022-09-30T11:45:15;101121.09;;;19.08;51.84
72061;BME280;59925;52.136;5.420;2022-09-30T11:53:35;101116.59;;;18.68;52.86
72061;BME280;59925;52.136;5.420;2022-09-30T11:56:33;101114.66;;;18.60;51.50
72061;BME280;59925;52.136;5.420;2022-09-30T11:59:06;101096.78;;;18.68;53.58
72061;BME280;59925;52.136;5.420;2022-09-30T12:01:40;101121.69;;;18.70;52.77
72061;BME280;59925;52.136;5.420;2022-09-30T12:04:18;101108.63;;;18.90;53.69
72061;BME280;59925;52.136;5.420;2022-09-30T12:09:50;101103.75;;;18.25;53.21
72061;BME280;59925;52.136;5.420;2022-09-30T12:12:19;101102.72;;;18.03;54.16
72061;BME280;59925;52.136;5.420;2022-09-30T12:14:49;101102.84;;;18.74;54.57
72061;BME280;59925;52.136;5.420;2022-09-30T12:19:54;101092.47;;;18.67;53.77
72061;BME280;59925;52.136;5.420;2022-09-30T12:22:37;101098.16;;;18.21;54.30
72061;BME280;59925;52.136;5.420;2022-09-30T12:25:13;101100.53;;;18.23;55.18
72061;BME280;59925;52.136;5.420;2022-09-30T12:27:48;101091.75;;;18.17;54.69
72061;BME280;59925;52.136;5.420;2022-09-30T12:30:19;101089.81;;;18.09;54.85
72061;BME280;59925;52.136;5.420;2022-09-30T12:35:59;101083.97;;;18.42;55.25
72061;BME280;59925;52.136;5.420;2022-09-30T12:38:52;101069.81;;;18.98;52.22
72061;BME280;59925;52.136;5.420;2022-09-30T12:41:39;101088.66;;;19.21;50.50
72061;BME280;59925;52.136;5.420;2022-09-30T12:47:29;101079.53;;;18.64;52.19
72061;BME280;59925;52.136;5.420;2022-09-30T12:49:59;101081.78;;;18.62;52.30
72061;BME280;59925;52.136;5.420;2022-09-30T12:52:31;101086.19;;;18.40;53.57
72061;BME280;59925;52.136;5.420;2022-09-30T12:55:04;101079.72;;;18.01;54.35
72061;BME280;59925;52.136;5.420;2022-09-30T12:57:35;101071.06;;;18.39;54.39
72061;BME280;59925;52.136;5.420;2022-09-30T13:00:14;101071.41;;;18.99;53.62
72061;BME280;59925;52.136;5.420;2022-09-30T13:02:53;101063.41;;;19.11;52.50
72061;BME280;59925;52.136;5.420;2022-09-30T13:08:21;101067.88;;;18.90;54.47
72061;BME280;59925;52.136;5.420;2022-09-30T13:10:57;101070.94;;;19.14;53.18
72061;BME280;59925;52.136;5.420;2022-09-30T13:13:26;101058.13;;;18.62;53.98
72061;BME280;59925;52.136;5.420;2022-09-30T13:15:55;101059.25;;;18.52;55.37
72061;BME280;59925;52.136;5.420;2022-09-30T13:23:46;101040.25;;;19.05;53.86
72061;BME280;59925;52.136;5.420;2022-09-30T13:31:28;101039.44;;;19.13;53.12
72061;BME280;59925;52.136;5.420;2022-09-30T13:34:09;101022.16;;;19.09;52.73
72061;BME280;59925;52.136;5.420;2022-09-30T13:50:25;101018.53;;;19.05;50.52
72061;BME280;59925;52.136;5.420;2022-09-30T13:52:59;101016.28;;;18.90;51.42
72061;BME280;59925;52.136;5.420;2022-09-30T13:55:33;101003.69;;;18.67;51.30
72061;BME280;59925;52.136;5.420;2022-09-30T14:00:53;101016.44;;;18.49;51.70
72061;BME280;59925;52.136;5.420;2022-09-30T14:09:20;101003.00;;;18.79;52.39
72061;BME280;59925;52.136;5.420;2022-09-30T14:18:01;101006.66;;;19.19;53.50
72061;BME280;59925;52.136;5.420;2022-09-30T14:23:32;101000.56;;;19.13;52.88
72061;BME280;59925;52.136;5.420;2022-09-30T14:28:46;100990.56;;;18.96;51.97
72061;BME280;59925;52.136;5.420;2022-09-30T14:31:18;100995.81;;;18.83;53.32
72061;BME280;59925;52.136;5.420;2022-09-30T14:33:47;100990.88;;;19.03;53.77
72061;BME280;59925;52.136;5.420;2022-09-30T14:36:17;100996.75;;;19.14;52.61
72061;BME280;59925;52.136;5.420;2022-09-30T14:38:47;100988.94;;;19.04;52.84
72061;BME280;59925;52.136;5.420;2022-09-30T14:41:21;100982.44;;;18.69;52.14
72061;BME280;59925;52.136;5.420;2022-09-30T14:43:50;100981.28;;;18.79;52.59
72061;BME280;59925;52.136;5.420;2022-09-30T14:46:36;100981.47;;;18.48;52.54
72061;BME280;59925;52.136;5.420;2022-09-30T14:49:11;100974.75;;;18.28;53.44
72061;BME280;59925;52.136;5.420;2022-09-30T14:51:43;100972.69;;;18.33;53.94
72061;BME280;59925;52.136;5.420;2022-09-30T14:54:18;100964.41;;;18.47;53.16
72061;BME280;59925;52.136;5.420;2022-09-30T14:56:45;100962.78;;;18.20;51.51
72061;BME280;59925;52.136;5.420;2022-09-30T14:59:17;100965.19;;;18.13;53.14
72061;BME280;59925;52.136;5.420;2022-09-30T15:01:46;100968.53;;;18.27;53.12
72061;BME280;59925;52.136;5.420;2022-09-30T15:04:17;100969.50;;;18.31;51.97
72061;BME280;59925;52.136;5.420;2022-09-30T15:06:49;100973.00;;;18.14;52.75
72061;BME280;59925;52.136;5.420;2022-09-30T15:09:25;100977.28;;;18.06;52.02
72061;BME280;59925;52.136;5.420;2022-09-30T15:11:53;100975.06;;;18.08;52.53
72061;BME280;59925;52.136;5.420;2022-09-30T15:14:22;100969.81;;;18.03;52.65
72061;BME280;59925;52.136;5.420;2022-09-30T15:16:56;100974.75;;;18.01;53.06
72061;BME280;59925;52.136;5.420;2022-09-30T15:19:32;100980.47;;;18.00;53.12
72061;BME280;59925;52.136;5.420;2022-09-30T15:22:02;100978.38;;;17.97;52.96
72061;BME280;59925;52.136;5.420;2022-09-30T15:24:30;100983.63;;;17.84;54.01
72061;BME280;59925;52.136;5.420;2022-09-30T15:26:59;100988.34;;;17.70;53.63
72061;BME280;59925;52.136;5.420;2022-09-30T15:29:27;100984.34;;;17.58;54.11
72061;BME280;59925;52.136;5.420;2022-09-30T15:31:58;100987.91;;;17.36;54.15
72061;BME280;59925;52.136;5.420;2022-09-30T15:34:26;100984.47;;;17.22;55.24
72061;BME280;59925;52.136;5.420;2022-09-30T15:36:59;100982.56;;;17.22;55.36
72061;BME280;59925;52.136;5.420;2022-09-30T15:39:34;100982.16;;;17.06;55.80
72061;BME280;59925;52.136;5.420;2022-09-30T15:47:52;100980.56;;;16.60;56.40
72061;BME280;59925;52.136;5.420;2022-09-30T15:53:16;100987.44;;;16.29;57.32
72061;BME280;59925;52.136;5.420;2022-09-30T15:55:55;100983.47;;;16.27;58.04
72061;BME280;59925;52.136;5.420;2022-09-30T15:58:37;100991.34;;;16.37;57.84
72061;BME280;59925;52.136;5.420;2022-09-30T16:01:23;100987.88;;;16.22;58.45
72061;BME280;59925;52.136;5.420;2022-09-30T16:03:59;100988.00;;;16.17;58.78
72061;BME280;59925;52.136;5.420;2022-09-30T16:06:36;100991.00;;;16.16;58.88
72061;BME280;59925;52.136;5.420;2022-09-30T16:11:46;100977.97;;;16.18;59.33
72061;BME280;59925;52.136;5.420;2022-09-30T16:17:28;100979.09;;;15.89;59.87
72061;BME280;59925;52.136;5.420;2022-09-30T16:19:56;100974.56;;;15.84;60.17
72061;BME280;59925;52.136;5.420;2022-09-30T16:25:24;100974.06;;;15.82;61.00
72061;BME280;59925;52.136;5.420;2022-09-30T16:28:13;100969.78;;;15.81;61.15
72061;BME280;59925;52.136;5.420;2022-09-30T16:30:46;100966.19;;;15.72;61.11
72061;BME280;59925;52.136;5.420;2022-09-30T16:33:14;100958.78;;;15.63;61.37